Weather at Fort Bridger Airport

Public forecast

Using degrees Fahrenheit for public forecast. Weather courtesy of forecast.io.

Current aviation weather report (METAR) for Fort Bridger Airport

Retrieved 2021/06/21 04:35 UTC (0 seconds ago):

KFBR 210435Z AUTO 10017KT 10SM CLR 15/05 A3025 RMK AO2 T01460047

Closest aviation forecast (TAF) to Fort Bridger Airport

Closest forecast is Evanston-Uinta County Airport-Burns Field, 29.2 nm (54.0 km) WSW. Retrieved 2021-06-21 00:24 UTC (4 hours ago):

TAF TAF KEVW 202345Z 2100/2124 27016G28KT P6SM SKC FM210200 31017G28KT P6SM SKC FM210400 34010KT P6SM SKC FM210700 07008KT P6SM SKC FM211900 27010KT P6SM SKC